| time (UTC) | temp F | wind direction | speed MPH | gust MPH | rain 1hr in | rain 24hr in | rain mn in | humidity % | barometer mb |
| 20260905230052 | 56 | 108 | 0.0 | 7.0 | 0.00 | 0.22 | 0.00 | 80 | 1013.3 |
| 20260905224557 | 57 | 79 | 0.0 | 1.0 | 0.00 | 0.22 | 0.00 | 80 | 1013.2 |
| 20260905223047 | 57 | 102 | 0.0 | 5.0 | 0.00 | 0.22 | 0.00 | 80 | 1013.2 |
| 20260905221547 | 57 | 95 | 0.0 | 9.0 | 0.00 | 0.22 | 0.00 | 81 | 1013.3 |
| 20260905220042 | 57 | 110 | 0.0 | 9.0 | 0.00 | 0.23 | 0.22 | 81 | 1013.4 |
| 20260905214540 | 56 | 58 | 1.0 | 13.0 | 0.00 | 0.23 | 0.22 | 82 | 1013.2 |
| 20260905213040 | 56 | 67 | 0.0 | 4.0 | 0.00 | 0.23 | 0.22 | 85 | 1013.1 |
| 20260905211545 | 56 | 58 | 0.0 | 0.0 | 0.00 | 0.23 | 0.22 | 85 | 1012.8 |
| 20260905210055 | 56 | 63 | 0.0 | 1.0 | 0.00 | 0.23 | 0.22 | 85 | 1013.1 |
| 20260905204537 | 56 | 63 | 0.0 | 0.0 | 0.00 | 0.23 | 0.22 | 86 | 1013.0 |
| 20260905203038 | 56 | 89 | 0.0 | 0.0 | 0.00 | 0.23 | 0.22 | 88 | 1013.1 |
| 20260905201537 | 56 | 80 | 0.0 | 1.0 | 0.01 | 0.23 | 0.22 | 88 | 1013.0 |
| 20260905200050 | 56 | 80 | 0.0 | 0.0 | 0.02 | 0.23 | 0.22 | 87 | 1013.0 |
| 20260905194535 | 56 | 103 | 0.0 | 3.0 | 0.06 | 0.23 | 0.22 | 87 | 1013.1 |
| 20260905193030 | 56 | 128 | 0.0 | 8.0 | 0.07 | 0.23 | 0.22 | 86 | 1013.3 |
| 20260905191526 | 56 | 145 | 0.0 | 8.0 | 0.06 | 0.22 | 0.21 | 85 | 1013.7 |
| 20260905190022 | 57 | 100 | 0.0 | 11.0 | 0.04 | 0.20 | 0.19 | 83 | 1013.8 |
| 20260905184517 | 58 | 100 | 0.0 | 9.0 | 0.01 | 0.17 | 0.16 | 77 | 1013.4 |
| 20260905183016 | 58 | 103 | 0.0 | 4.0 | 0.00 | 0.16 | 0.15 | 78 | 1012.9 |
| 20260905181513 | 58 | 106 | 0.0 | 0.0 | 0.01 | 0.16 | 0.15 | 81 | 1013.0 |
| 20260905180012 | 58 | 106 | 0.0 | 0.0 | 0.01 | 0.16 | 0.15 | 79 | 1012.9 |
| 20260905174510 | 59 | 125 | 0.0 | 1.0 | 0.01 | 0.16 | 0.15 | 76 | 1013.0 |
| 20260905173008 | 62 | 38 | 4.0 | 25.0 | 0.01 | 0.16 | 0.15 | 64 | 1013.0 |
| 20260905171508 | 67 | 61 | 0.0 | 0.0 | 0.00 | 0.15 | 0.14 | 48 | 1012.1 |
| 20260905170002 | 67 | 64 | 0.0 | 1.0 | 0.00 | 0.15 | 0.14 | 47 | 1012.1 |
| 20260905164600 | 68 | 82 | 0.0 | 8.0 | 0.00 | 0.15 | 0.14 | 46 | 1011.8 |
| 20260905163101 | 68 | 69 | 0.0 | 8.0 | 0.00 | 0.15 | 0.14 | 45 | 1011.7 |
| 20260905161601 | 68 | 77 | 0.0 | 7.0 | 0.00 | 0.15 | 0.14 | 45 | 1011.6 |
| 20260905160057 | 68 | 79 | 1.0 | 12.0 | 0.00 | 0.15 | 0.14 | 45 | 1011.4 |
| 20260905154557 | 69 | 129 | 1.0 | 17.0 | 0.00 | 0.15 | 0.14 | 44 | 1011.4 |
| 20260905153054 | 69 | 80 | 3.0 | 16.0 | 0.00 | 0.15 | 0.14 | 46 | 1011.2 |
| 20260905151553 | 69 | 71 | 2.0 | 15.0 | 0.00 | 0.15 | 0.14 | 49 | 1011.2 |
| 20260905150052 | 69 | 92 | 4.0 | 16.0 | 0.00 | 0.15 | 0.14 | 49 | 1011.1 |
| 20260905144553 | 68 | 85 | 1.0 | 15.0 | 0.00 | 0.15 | 0.14 | 51 | 1011.0 |
| 20260905143053 | 68 | 101 | 3.0 | 12.0 | 0.00 | 0.15 | 0.14 | 51 | 1011.0 |
| 20260905141548 | 70 | 119 | 8.0 | 22.0 | 0.00 | 0.15 | 0.14 | 45 | 1010.9 |
| 20260905140046 | 71 | 83 | 4.0 | 17.0 | 0.00 | 0.15 | 0.14 | 44 | 1010.7 |
| 20260905134550 | 71 | 115 | 4.0 | 18.0 | 0.00 | 0.15 | 0.14 | 47 | 1010.6 |
| 20260905133044 | 71 | 106 | 5.0 | 22.0 | 0.00 | 0.15 | 0.14 | 45 | 1010.7 |
| 20260905131543 | 71 | 98 | 5.0 | 14.0 | 0.00 | 0.15 | 0.14 | 46 | 1010.5 |
| 20260905130041 | 70 | 120 | 3.0 | 14.0 | 0.00 | 0.15 | 0.14 | 48 | 1010.4 |
| 20260905124547 | 70 | 129 | 7.0 | 16.0 | 0.00 | 0.15 | 0.14 | 50 | 1010.3 |
| 20260905123039 | 70 | 109 | 0.0 | 17.0 | 0.00 | 0.15 | 0.14 | 52 | 1010.5 |
| 20260905121539 | 71 | 98 | 1.0 | 15.0 | 0.00 | 0.15 | 0.14 | 50 | 1010.4 |
| 20260905120039 | 69 | 104 | 2.0 | 18.0 | 0.00 | 0.15 | 0.14 | 52 | 1010.5 |
| 20260905114536 | 71 | 116 | 1.0 | 15.0 | 0.00 | 0.15 | 0.14 | 50 | 1010.4 |
| 20260905113035 | 71 | 112 | 0.0 | 15.0 | 0.00 | 0.15 | 0.14 | 51 | 1010.3 |
| 20260905111529 | 71 | 114 | 1.0 | 11.0 | 0.00 | 0.15 | 0.14 | 51 | 1010.3 |
| 20260905110026 | 70 | 118 | 4.0 | 14.0 | 0.00 | 0.15 | 0.14 | 54 | 1010.3 |
| 20260905104535 | 70 | 56 | 0.0 | 14.0 | 0.00 | 0.15 | 0.14 | 57 | 1010.2 |
| 20260905103025 | 68 | 101 | 0.0 | 12.0 | 0.00 | 0.15 | 0.14 | 60 | 1010.1 |
| 20260905101522 | 69 | 117 | 4.0 | 13.0 | 0.00 | 0.15 | 0.14 | 60 | 1010.1 |
| 20260905100021 | 67 | 138 | 4.0 | 10.0 | 0.00 | 0.15 | 0.14 | 62 | 1010.1 |
| 20260905094521 | 68 | 110 | 3.0 | 12.0 | 0.00 | 0.15 | 0.14 | 60 | 1010.0 |
| 20260905093018 | 66 | 50 | 2.0 | 13.0 | 0.00 | 0.15 | 0.14 | 61 | 1010.0 |
| 20260905091517 | 66 | 112 | 0.0 | 13.0 | 0.00 | 0.15 | 0.14 | 64 | 1010.1 |
| 20260905090020 | 66 | 75 | 0.0 | 15.0 | 0.00 | 0.15 | 0.14 | 65 | 1010.1 |
| 20260905084619 | 66 | 93 | 3.0 | 14.0 | 0.00 | 0.15 | 0.14 | 64 | 1010.0 |
| 20260905083016 | 65 | 102 | 1.0 | 15.0 | 0.00 | 0.15 | 0.14 | 68 | 1009.8 |
| 20260905081510 | 65 | 330 | 1.0 | 10.0 | 0.00 | 0.15 | 0.14 | 70 | 1009.8 |
| 20260905080011 | 65 | 41 | 0.0 | 10.0 | 0.00 | 0.17 | 0.14 | 71 | 1009.8 |
| 20260905074505 | 64 | 129 | 0.0 | 9.0 | 0.00 | 0.17 | 0.14 | 72 | 1009.6 |
| 20260905073010 | 64 | 117 | 0.0 | 7.0 | 0.00 | 0.17 | 0.14 | 73 | 1009.1 |
| 20260905071501 | 64 | 98 | 0.0 | 10.0 | 0.00 | 0.17 | 0.14 | 74 | 1009.3 |
| 20260905070100 | 63 | 133 | 0.0 | 10.0 | 0.00 | 0.17 | 0.14 | 77 | 1009.1 |
| 20260905064559 | 63 | 62 | 0.0 | 12.0 | 0.00 | 0.17 | 0.14 | 78 | 1008.9 |
| 20260905063105 | 63 | 100 | 5.0 | 30.0 | 0.00 | 0.17 | 0.14 | 76 | 1008.5 |
| 20260905061609 | 63 | 89 | 6.0 | 17.0 | 0.00 | 0.17 | 0.14 | 78 | 1008.4 |
| 20260905060050 | 62 | 47 | 0.0 | 13.0 | 0.00 | 0.17 | 0.14 | 81 | 1008.3 |
| 20260905054550 | 62 | 102 | 0.0 | 10.0 | 0.00 | 0.17 | 0.14 | 82 | 1008.2 |
| 20260905053050 | 62 | 35 | 0.0 | 12.0 | 0.00 | 0.17 | 0.14 | 83 | 1007.8 |
| 20260905051546 | 62 | 83 | 1.0 | 8.0 | 0.00 | 0.17 | 0.14 | 84 | 1007.7 |
| 20260905050041 | 62 | 29 | 0.0 | 8.0 | 0.00 | 0.17 | 0.14 | 85 | 1007.5 |
| 20260905044539 | 62 | 92 | 1.0 | 10.0 | 0.00 | 0.17 | 0.14 | 85 | 1007.3 |
| 20260905043103 | 62 | 79 | 0.0 | 3.0 | 0.00 | 0.17 | 0.14 | 86 | 1007.1 |
| 20260905041534 | 62 | 43 | 0.0 | 7.0 | 0.00 | 0.17 | 0.14 | 86 | 1006.8 |
| 20260905040036 | 62 | 96 | 0.0 | 8.0 | 0.00 | 0.17 | 0.14 | 86 | 1006.8 |
| 20260905034531 | 61 | 71 | 0.0 | 5.0 | 0.00 | 0.17 | 0.14 | 86 | 1006.6 |
| 20260905033027 | 62 | 75 | 0.0 | 6.0 | 0.00 | 0.17 | 0.14 | 86 | 1006.6 |
| 20260905031525 | 62 | 88 | 0.0 | 14.0 | 0.00 | 0.17 | 0.14 | 85 | 1006.2 |
| 20260905030023 | 62 | 89 | 3.0 | 12.0 | 0.00 | 0.17 | 0.14 | 85 | 1006.2 |
| 20260905024522 | 62 | 75 | 0.0 | 7.0 | 0.00 | 0.17 | 0.14 | 85 | 1005.9 |
| 20260905023019 | 62 | 70 | 0.0 | 12.0 | 0.01 | 0.17 | 0.14 | 85 | 1005.9 |
| 20260905021517 | 62 | 109 | 0.0 | 9.0 | 0.01 | 0.17 | 0.14 | 87 | 1005.8 |
| 20260905020013 | 63 | 103 | 0.0 | 7.0 | 0.01 | 0.17 | 0.14 | 87 | 1005.5 |
| 20260905014511 | 64 | 108 | 0.0 | 5.0 | 0.02 | 0.17 | 0.14 | 87 | 1005.6 |
| 20260905013007 | 64 | 85 | 0.0 | 3.0 | 0.01 | 0.16 | 0.13 | 88 | 1005.5 |
| 20260905011506 | 64 | 86 | 0.0 | 5.0 | 0.03 | 0.16 | 0.13 | 87 | 1005.5 |
| 20260905010006 | 65 | 74 | 0.0 | 4.0 | 0.04 | 0.16 | 0.13 | 88 | 1005.5 |
| 20260905004502 | 64 | 67 | 0.0 | 1.0 | 0.03 | 0.15 | 0.12 | 87 | 1005.4 |
| 20260905003059 | 65 | 97 | 0.0 | 4.0 | 0.03 | 0.15 | 0.12 | 86 | 1005.0 |
| 20260905001556 | 66 | 82 | 0.0 | 3.0 | 0.01 | 0.13 | 0.10 | 86 | 1004.9 |
| 20260905000054 | 66 | 51 | 0.0 | 3.0 | 0.01 | 0.12 | 0.09 | 86 | 1004.8 |
| 20260904234556 | 66 | 54 | 0.0 | 2.0 | 0.01 | 0.12 | 0.09 | 87 | 1004.3 |
| 20260904233053 | 66 | 129 | 0.0 | 7.0 | 0.01 | 0.12 | 0.09 | 88 | 1004.4 |
| 20260904231549 | 66 | 101 | 2.0 | 5.0 | 0.02 | 0.12 | 0.09 | 88 | 1004.4 |